• Join FlightAware (Why Join?)
  • Login
  • US Flag 
04:59AM EDT


 

Airport Tracker/Info


-or-


 

Live Flight TrackerFlight Track Log ✈ SWA397 ✈ 18-Jul-2013 ✈ KLAS - KHOU

Flight Track Log - Related Links

Times and Time Zones

All times are in EDT time to prevent confusion due to time zone crossing. See the SWA397 flight status page for this flight to view local times or setup timezone preferences in your user account.

Time Position Orientation Groundspeed Altitude Reporting Facility
EDT Latitude Longitude Course Direction KTS MPH feet Rate Location/Type
03:10PM 36.0760 -115.1570 269° West 182 209 2,500  Level FlightAware
03:11PM 36.0690 -115.2460 264° West 227 261 4,900 1,560 Climbing FlightAware
03:12PM 36.0550 -115.2630 224° Southwest 251 289 5,100 1,380 Climbing FlightAware
03:12PM 36.0420 -115.2690 200° South 256 295 5,600 2,340 Climbing FlightAware
03:12PM 36.0300 -115.2730 195° South 255 293 6,000 2,160 Climbing FlightAware
03:12PM 35.9990 -115.2870 200° South 247 284 7,000 1,560 Climbing FlightAware
03:13PM 35.9680 -115.2990 197° South 264 304 7,500 1,320 Climbing FlightAware
03:14PM 35.9330 -115.2730 149° Southeast 287 330 8,400 1,860 Climbing FlightAware
03:14PM 35.9290 -115.2540 105° East 292 336 8,900 2,100 Climbing FlightAware
03:15PM 35.9290 -115.1550 90° East 327 376 10,800 1,680 Climbing FlightAware
03:15PM 35.9290 -115.0760 90° East 362 417 11,700 1,680 Climbing FlightAware
03:16PM 35.9290 -115.0050 90° East 371 427 13,000 2,460 Climbing FlightAware
03:17PM 35.9290 -114.9050 90° East 376 433 15,000 2,460 Climbing FlightAware
03:17PM 35.9290 -114.8280 90° East 380 437 16,400 2,220 Climbing FlightAware
03:18PM 35.9290 -114.7400 90° East 386 444 17,900 1,920 Climbing FlightAware
03:19PM 35.9290 -114.6330 90° East 401 461 19,300 1,680 Climbing FlightAware
03:19PM 35.9280 -114.5350 91° East 414 476 20,400 1,680 Climbing FlightAware
03:20PM 35.9280 -114.4380 90° East 418 481 21,700 1,800 Climbing FlightAware
03:21PM 35.9270 -114.3380 91° East 422 486 22,900 1,680 Climbing FlightAware
03:21PM 35.9260 -114.2420 91° East 425 489 24,000 1,500 Climbing FlightAware
03:22PM 35.9250 -114.1120 91° East 434 499 25,300 1,320 Climbing FlightAware
03:23PM 35.9240 -113.9940 91° East 444 511 26,200 1,200 Climbing FlightAware
03:24PM 35.9240 -113.8850 90° East 450 518 27,100 1,140 Climbing FlightAware
03:24PM 35.9230 -113.7940 91° East 456 525 27,700 1,080 Climbing FlightAware
03:25PM 35.9210 -113.6980 91° East 461 531 28,400 960 Climbing FlightAware
03:26PM 35.8710 -113.4920 107° East 474 545 29,700 1,020 Climbing FlightAware
03:27PM 35.8390 -113.3800 109° East 472 543 30,600 1,320 Climbing FlightAware
03:28PM 35.8080 -113.2710 109° East 465 535 31,700 1,560 Climbing FlightAware
03:29PM 35.7780 -113.1660 109° East 457 526 32,800 1,320 Climbing FlightAware
03:29PM 35.7440 -113.0500 110° East 455 524 33,700 1,020 Climbing FlightAware
03:30PM 35.7140 -112.9460 110° East 453 521 34,400 840 Climbing FlightAware
03:31PM 35.6800 -112.8310 110° East 452 520 35,000 360 Climbing FlightAware
03:32PM 35.6510 -112.7330 110° East 450 518 35,000  Level FlightAware
03:32PM 35.6210 -112.6310 110° East 448 516 35,000  Level FlightAware
03:33PM 35.5920 -112.5310 110° East 446 513 35,000  Level FlightAware
03:34PM 35.5610 -112.4260 110° East 444 511 35,000  Level FlightAware
03:34PM 35.5310 -112.3270 110° East 443 510 35,000  Level FlightAware
03:35PM 35.4920 -112.1950 110° East 442 509 35,000  Level FlightAware
03:36PM 35.4620 -112.0970 111° Southeast 442 509 35,000  Level FlightAware
03:37PM 35.4340 -112.0040 110° East 442 509 35,000  Level FlightAware
03:37PM 35.4040 -111.9040 110° East 442 509 35,000  Level FlightAware
03:38PM 35.3740 -111.8060 111° Southeast 443 510 35,000  Level FlightAware
03:39PM 35.3450 -111.7110 110° East 443 510 35,000  Level FlightAware
03:39PM 35.3180 -111.6220 110° East 445 512 35,000  Level FlightAware
03:40PM 35.2910 -111.5330 110° East 444 511 35,000  Level FlightAware
03:41PM 35.2600 -111.4330 111° Southeast 443 510 35,000  Level FlightAware
03:42PM 35.2270 -111.3260 111° Southeast 444 511 35,000  Level FlightAware
03:42PM 35.2000 -111.2370 110° East 445 512 35,000  Level FlightAware
03:43PM 35.1640 -111.1230 111° Southeast 448 516 35,000  Level FlightAware
03:44PM 35.1350 -111.0310 111° Southeast 448 516 35,000  Level FlightAware
03:44PM 35.1090 -110.9450 110° East 448 516 35,000  Level FlightAware
03:46PM 35.0010 -110.7060 119° Southeast 455 524 35,000  Level FlightAware
03:47PM 34.9270 -110.5960 129° Southeast 454 522 35,000  Level FlightAware
03:48PM 34.8670 -110.5080 130° Southeast 455 524 35,000  Level FlightAware
03:48PM 34.8090 -110.4220 129° Southeast 453 521 35,000  Level FlightAware
03:49PM 34.7530 -110.3410 130° Southeast 450 518 35,000  Level FlightAware
03:50PM 34.7030 -110.2670 129° Southeast 449 517 35,000  Level FlightAware
03:50PM 34.6490 -110.1890 130° Southeast 448 516 35,000  Level FlightAware
03:51PM 34.5990 -110.1150 129° Southeast 447 514 35,000  Level FlightAware
03:52PM 34.5430 -110.0340 130° Southeast 445 512 35,000  Level FlightAware
03:52PM 34.4850 -109.9500 130° Southeast 444 511 35,000  Level FlightAware
03:53PM 34.4280 -109.8670 130° Southeast 444 511 35,000  Level FlightAware
03:54PM 34.3640 -109.7750 130° Southeast 444 511 35,000  Level FlightAware
03:57PM 34.1940 -109.5310 130° Southeast 444 511 35,000  Level FlightAware
03:57PM 34.1500 -109.4680 130° Southeast 444 511 35,000  Level FlightAware
03:58PM 34.0960 -109.3910 130° Southeast 444 511 35,000  Level FlightAware
03:59PM 34.0550 -109.3310 130° Southeast 444 511 35,000  Level FlightAware
03:59PM 34.0020 -109.2550 130° Southeast 444 511 35,000  Level FlightAware
04:00PM 33.9620 -109.1970 130° Southeast 444 511 35,000  Level FlightAware
04:01PM 33.9080 -109.1200 130° Southeast 444 511 35,000  Level FlightAware
04:01PM 33.8660 -109.0600 130° Southeast 444 511 35,000  Level FlightAware
04:02PM 33.8150 -108.9860 130° Southeast 444 511 35,000  Level FlightAware
04:03PM 33.7740 -108.9280 130° Southeast 444 511 35,000  Level FlightAware
04:04PM 33.7200 -108.8510 130° Southeast 444 511 35,000  Level FlightAware
04:04PM 33.6800 -108.7930 130° Southeast 444 511 35,000  Level FlightAware
04:05PM 33.6260 -108.7160 130° Southeast 444 511 35,000  Level FlightAware
04:06PM 33.5860 -108.6580 130° Southeast 444 511 35,000  Level FlightAware
04:06PM 33.4114 -108.4292 130° Southeast 426 490 35,000  Level Albuquerque Center
04:07PM 33.3336 -108.3197 130° Southeast 428 493 35,000  Level Albuquerque Center
04:08PM 33.2544 -108.2114 131° Southeast 431 496 35,000  Level Albuquerque Center
04:09PM 33.1744 -108.1017 131° Southeast 429 494 35,000  Level Albuquerque Center
04:10PM 33.0964 -107.9944 131° Southeast 429 494 35,000  Level Albuquerque Center
04:11PM 33.0031 -107.8678 131° Southeast 426 490 35,000  Level Albuquerque Center
04:13PM 32.9247 -107.7628 132° Southeast 425 489 35,000  Level Albuquerque Center
04:14PM 32.8467 -107.6561 131° Southeast 427 491 35,000  Level Albuquerque Center
04:15PM 32.7692 -107.5514 131° Southeast 425 489 35,000  Level Albuquerque Center
04:16PM 32.6922 -107.4475 131° Southeast 425 489 35,000  Level Albuquerque Center
04:17PM 32.6147 -107.3406 131° Southeast 427 491 35,000  Level Albuquerque Center
04:18PM 32.5203 -107.2133 131° Southeast 428 493 35,000  Level Albuquerque Center
04:19PM 32.4533 -107.1264 132° Southeast 427 491 35,000  Level Albuquerque Center
04:20PM 32.3597 -106.9964 130° Southeast 430 495 35,000  Level Albuquerque Center
04:21PM 32.2800 -106.8908 132° Southeast 430 495 35,000  Level Albuquerque Center
04:22PM 32.2117 -106.8003 132° Southeast 428 493 35,000  Level Albuquerque Center
04:23PM 32.1167 -106.6750 132° Southeast 428 493 35,000  Level Albuquerque Center
04:24PM 32.0375 -106.5714 132° Southeast 426 490 35,000  Level Albuquerque Center
04:25PM 31.9581 -106.4681 132° Southeast 426 490 35,000  Level Albuquerque Center
04:26PM 31.8825 -106.3703 132° Southeast 436 502 35,000  Level Albuquerque Center
04:27PM 31.8131 -106.2197 118° Southeast 472 543 35,000  Level Albuquerque Center
04:28PM 31.7919 -106.0806 100° East 439 505 35,000  Level Albuquerque Center
04:29PM 31.7742 -105.9375 98° East 443 510 35,000 300 Level Albuquerque Center
04:35PM 31.6730 -105.1080 98° East 456 525 37,000 300 Climbing FlightAware
04:35PM 31.6590 -104.9960 98° East 456 525 37,000  Level FlightAware
04:36PM 31.6470 -104.9010 98° East 456 525 37,000  Level FlightAware
04:37PM 31.6340 -104.8030 99° East 460 529 37,000  Level FlightAware
04:38PM 31.6180 -104.6790 99° East 465 535 37,000  Level FlightAware
04:38PM 31.6060 -104.5880 99° East 469 540 37,000  Level FlightAware
04:39PM 31.5900 -104.4700 99° East 470 541 37,000  Level FlightAware
04:42PM 31.5350 -104.0170 98° East 472 543 37,000  Level FlightAware
04:43PM 31.5230 -103.9200 98° East 472 543 37,000  Level FlightAware
04:44PM 31.5100 -103.8030 97° East 472 543 37,000  Level FlightAware
04:45PM 31.4930 -103.6650 98° East 472 543 37,000  Level FlightAware
04:46PM 31.4830 -103.5850 98° East 472 543 37,000  Level FlightAware
04:46PM 31.4710 -103.4820 98° East 472 543 37,000  Level FlightAware
04:47PM 31.4620 -103.4040 98° East 472 543 37,000  Level FlightAware
04:48PM 31.4490 -103.3010 98° East 472 543 37,000  Level FlightAware
04:48PM 31.4400 -103.2230 98° East 472 543 37,000  Level FlightAware
04:49PM 31.4280 -103.1200 98° East 472 543 37,000  Level FlightAware
04:51PM 31.3600 -102.6960 101° East 462 532 37,000  Level FlightAware
04:51PM 31.3480 -102.6040 99° East 462 532 37,000  Level FlightAware
04:52PM 31.3350 -102.5060 99° East 462 532 37,000  Level FlightAware
04:53PM 31.3200 -102.3930 99° East 464 534 37,000  Level FlightAware
04:53PM 31.3080 -102.3000 99° East 465 535 37,000  Level FlightAware
04:54PM 31.2960 -102.2060 98° East 467 537 37,000  Level FlightAware
04:55PM 31.2820 -102.1050 99° East 468 539 37,000  Level FlightAware
04:55PM 31.2680 -101.9980 99° East 469 540 37,000  Level FlightAware
04:56PM 31.2560 -101.9070 99° East 470 541 37,000  Level FlightAware
04:57PM 31.2420 -101.8000 99° East 469 540 37,000  Level FlightAware
04:57PM 31.2280 -101.6990 99° East 468 539 37,000  Level FlightAware
04:58PM 31.2140 -101.5980 99° East 466 536 37,000  Level FlightAware
04:59PM 31.1990 -101.4900 99° East 465 535 37,000  Level FlightAware
04:59PM 31.1860 -101.3910 99° East 464 534 37,000  Level FlightAware
05:00PM 31.1710 -101.2870 100° East 465 535 37,000  Level FlightAware
05:01PM 31.1540 -101.1900 102° East 467 537 37,000  Level FlightAware
05:01PM 31.1350 -101.1000 104° East 467 537 37,000  Level FlightAware
05:02PM 31.1100 -100.9880 105° East 465 535 37,000  Level FlightAware
05:03PM 31.0960 -100.8900 99° East 462 532 37,000  Level FlightAware
05:03PM 31.0880 -100.8010 96° East 462 532 37,000  Level FlightAware
05:04PM 31.0810 -100.6930 94° East 460 529 37,000  Level FlightAware
05:05PM 31.0720 -100.5930 96° East 456 525 37,000  Level FlightAware
05:05PM 31.0580 -100.4980 100° East 457 526 37,000  Level FlightAware
05:06PM 31.0440 -100.4010 100° East 459 528 37,000  Level FlightAware
05:07PM 31.0290 -100.2970 100° East 459 528 37,000  Level FlightAware
05:08PM 31.0120 -100.1810 100° East 458 527 37,000  Level FlightAware
05:08PM 31.0000 -100.1040 100° East 456 525 37,000  Level FlightAware
05:09PM 30.9780 -99.9990 104° East 457 526 37,000  Level FlightAware
05:10PM 30.9520 -99.9060 108° East 460 529 37,000  Level FlightAware
05:10PM 30.9580 -99.8210 85° East 457 526 37,000  Level FlightAware
05:12PM 30.9900 -99.6160 80° East 456 525 37,000  Level FlightAware
05:12PM 30.9790 -99.5110 97° East 458 527 37,000  Level FlightAware
05:13PM 30.9670 -99.4100 98° East 457 526 37,000  Level FlightAware
05:14PM 30.9540 -99.3110 99° East 459 528 37,000  Level FlightAware
05:14PM 30.9390 -99.1980 99° East 459 528 37,000  Level FlightAware
05:15PM 30.9260 -99.0920 98° East 458 527 37,000  Level FlightAware
05:16PM 30.9130 -98.9980 99° East 458 527 37,000  Level FlightAware
05:16PM 30.9010 -98.9060 99° East 457 526 37,000  Level FlightAware
05:17PM 30.8880 -98.8080 99° East 457 526 37,000  Level FlightAware
05:18PM 30.8750 -98.7130 99° East 457 526 37,000  Level FlightAware
05:19PM 30.8600 -98.6010 99° East 457 526 37,000  Level FlightAware
05:19PM 30.8470 -98.5040 99° East 456 525 37,000  Level FlightAware
05:19PM 30.8430 -98.4750 99° East 456 525 37,000  Level FlightAware
05:22PM 30.8000 -98.1620 99° East 457 526 37,000  Level FlightAware
05:24PM 30.7500 -97.8010 99° East 458 527 37,000 -300 Level FlightAware
05:25PM 30.7360 -97.7070 100° East 457 526 36,300 -1,020 Descending FlightAware
05:25PM 30.7210 -97.5980 99° East 458 527 35,600 -960 Descending FlightAware
05:26PM 30.7100 -97.5200 99° East 459 528 35,100 -1,620 Descending FlightAware
05:27PM 30.6940 -97.4100 100° East 460 529 33,500 -2,940 Descending FlightAware
05:27PM 30.6670 -97.3130 108° East 477 549 30,900 -3,360 Descending FlightAware
05:28PM 30.6420 -97.2280 109° East 469 540 29,300 -2,640 Descending FlightAware
05:29PM 30.6140 -97.1360 109° East 461 531 27,600 -2,640 Descending FlightAware
05:29PM 30.5840 -97.0370 109° East 452 520 25,700 -2,640 Descending FlightAware
05:30PM 30.5550 -96.9510 111° Southeast 444 511 24,100 -2,100 Descending FlightAware
05:31PM 30.5120 -96.8590 118° Southeast 418 481 22,800 -1,860 Descending FlightAware
05:31PM 30.4740 -96.7770 118° Southeast 406 467 21,400 -1,980 Descending FlightAware
05:32PM 30.4370 -96.6970 118° Southeast 406 467 20,100 -1,380 Descending FlightAware
05:33PM 30.3990 -96.6160 119° Southeast 420 483 19,500 -1,620 Descending FlightAware
05:34PM 30.3580 -96.5280 118° Southeast 411 473 17,800 -2,400 Descending FlightAware
05:34PM 30.3240 -96.4550 118° Southeast 403 464 16,200 -2,520 Descending FlightAware
05:35PM 30.2830 -96.3700 119° Southeast 392 451 14,300 -2,520 Descending FlightAware
05:36PM 30.2490 -96.2970 118° Southeast 381 438 12,700 -1,260 Descending FlightAware
05:36PM 30.2200 -96.2340 118° Southeast 381 438 12,600 -1,740 Descending FlightAware
05:37PM 30.1850 -96.1960 137° Southeast 348 400 10,900 -1,500 Descending FlightAware
05:37PM 30.1210 -96.1600 154° Southeast 322 371 10,900  Level FlightAware
05:38PM 30.0630 -96.1300 156° South 321 369 10,900  Level FlightAware
05:39PM 30.0050 -96.0990 155° Southeast 320 368 10,900  Level FlightAware
05:39PM 29.9860 -96.0820 142° Southeast 320 368 10,900  Level FlightAware
05:40PM 29.9400 -96.0310 136° Southeast 292 336 10,900 -360 Level FlightAware
05:41PM 29.8980 -95.9830 135° Southeast 287 330 10,400 -1,020 Descending FlightAware
05:41PM 29.8720 -95.9530 135° Southeast 288 331 9,700 -1,380 Descending FlightAware
05:41PM 29.8570 -95.9350 134° Southeast 285 328 9,400 -1,140 Descending FlightAware
05:42PM 29.8120 -95.8840 135° Southeast 280 322 8,500 -1,020 Descending FlightAware
05:43PM 29.7870 -95.8550 135° Southeast 281 323 8,100 -1,020 Descending FlightAware
05:43PM 29.7630 -95.8260 134° Southeast 280 322 7,600 -1,260 Descending FlightAware
05:44PM 29.7370 -95.7960 135° Southeast 280 322 7,000 -1,140 Descending FlightAware
05:44PM 29.7180 -95.7740 135° Southeast 278 320 6,700 -1,020 Descending FlightAware
05:44PM 29.6940 -95.7460 135° Southeast 275 316 6,200 -900 Descending FlightAware
05:45PM 29.6680 -95.7170 136° Southeast 261 300 5,900 -420 Descending FlightAware
05:45PM 29.6550 -95.7020 135° Southeast 246 283 5,900  Level FlightAware
05:45PM 29.6360 -95.6810 136° Southeast 231 266 5,900  Level FlightAware
05:46PM 29.6250 -95.6630 125° Southeast 226 260 5,900  Level FlightAware
05:46PM 29.6230 -95.6530 103° East 225 259 5,900 -540 Level FlightAware
05:46PM 29.6340 -95.6240 66° East 228 262 5,600 -840 Descending FlightAware
05:47PM 29.6480 -95.6060 48° Northeast 226 260 5,300 -1,020 Descending FlightAware
05:47PM 29.6670 -95.5810 49° Northeast 225 259 4,800 -1,140 Descending FlightAware
05:48PM 29.6790 -95.5530 64° Northeast 225 259 4,300 -1,140 Descending FlightAware
05:48PM 29.6830 -95.5260 80° East 222 255 3,900 -960 Descending FlightAware
05:49PM 29.6920 -95.4850 76° East 212 244 3,400 -780 Descending FlightAware
05:49PM 29.6960 -95.4640 78° East 200 230 3,200 -600 Descending FlightAware
05:49PM 29.6990 -95.4520 74° East 193 222 3,100 -720 Descending FlightAware
05:50PM 29.7090 -95.4240 68° East 184 212 2,700 -840 Descending FlightAware
05:50PM 29.7200 -95.4180 25° Northeast 186 214 2,500 -900 Descending FlightAware
05:50PM 29.7310 -95.4130 22° Northeast 181 208 2,300 -900 Descending FlightAware
05:50PM 29.7380 -95.4050 45° Northeast 170 196 2,100 -600 Descending FlightAware
05:50PM 29.7390 -95.3970 82° East 170 196 2,100 -240 Level FlightAware
05:51PM 29.7330 -95.3810 113° Southeast 171 197 2,000 -420 Descending FlightAware
05:51PM 29.7180 -95.3650 137° Southeast 168 193 1,800 -480 Descending FlightAware
05:51PM 29.7110 -95.3570 135° Southeast 166 191 1,700 -720 Descending FlightAware
05:52PM 29.6960 -95.3390 134° Southeast 159 183 1,300 -900 Descending FlightAware
05:52PM 29.6820 -95.3220 133° Southeast 149 171 900 -900 Descending FlightAware
05:53PM 29.6680 -95.3060 135° Southeast 151 174 500 -840 Descending FlightAware
05:53PM 29.6600 -95.2970 136° Southeast 152 175 300 -780 Descending FlightAware
05:54PM 29.6500 -95.2840 132° Southeast 149 171 -840 Descending FlightAware
05:54PM 29.6390 -95.2710 134° Southeast 149 171  Level FlightAware
06:02PM 29.6333 -95.2667 North  Level FlightAware Approximate